createdAt,value
2017-10-29T00:00:29.264Z,21.77
2017-10-29T00:01:38.359Z,21.64
2017-10-29T00:02:47.367Z,21.69
2017-10-29T00:03:57.038Z,21.69
2017-10-29T00:05:06.390Z,21.74
2017-10-29T00:06:15.368Z,21.74
2017-10-29T00:07:24.051Z,21.72
2017-10-29T00:08:33.386Z,21.72
2017-10-29T00:09:42.377Z,21.75
2017-10-29T00:10:52.040Z,21.68
2017-10-29T00:12:01.153Z,21.74
2017-10-29T00:13:10.876Z,21.75
2017-10-29T00:14:19.537Z,21.71
2017-10-29T00:15:28.735Z,21.69
2017-10-29T00:16:37.734Z,21.72
2017-10-29T00:17:47.076Z,21.72
2017-10-29T00:18:56.515Z,21.77
2017-10-29T00:20:05.818Z,21.68
2017-10-29T00:21:15.160Z,21.71
2017-10-29T00:22:24.476Z,21.74
2017-10-29T00:23:33.180Z,21.75
2017-10-29T00:24:42.830Z,21.74
2017-10-29T00:25:51.900Z,21.75
2017-10-29T00:27:00.885Z,21.79
2017-10-29T00:28:09.871Z,21.69
2017-10-29T00:29:18.528Z,21.77
2017-10-29T00:30:27.516Z,21.8
2017-10-29T00:31:36.894Z,21.77
2017-10-29T00:32:46.633Z,21.77
2017-10-29T00:33:56.019Z,21.74
2017-10-29T00:35:05.326Z,21.77
2017-10-29T00:36:13.976Z,21.75
2017-10-29T00:37:23.316Z,21.8
2017-10-29T00:38:32.790Z,21.77
2017-10-29T00:39:41.817Z,21.79
2017-10-29T00:40:50.803Z,21.75
2017-10-29T00:42:00.149Z,21.8
2017-10-29T00:43:09.511Z,21.8
2017-10-29T00:44:18.847Z,21.8
2017-10-29T00:45:28.688Z,21.8
2017-10-29T00:46:38.473Z,21.74
2017-10-29T00:47:47.942Z,21.83
2017-10-29T00:48:56.977Z,21.84
2017-10-29T00:50:06.281Z,21.84
2017-10-29T00:51:15.886Z,21.79
2017-10-29T00:52:26.273Z,21.84
2017-10-29T00:53:35.565Z,21.84
2017-10-29T00:54:44.778Z,21.77
2017-10-29T00:55:54.081Z,21.77
2017-10-29T00:57:03.073Z,21.74
2017-10-29T00:58:13.066Z,21.75
2017-10-29T00:59:22.387Z,21.8
2017-10-29T01:00:31.050Z,21.74
2017-10-29T01:01:40.093Z,21.8
2017-10-29T01:02:49.057Z,21.68
2017-10-29T01:03:58.663Z,21.79
2017-10-29T01:05:07.971Z,21.84
2017-10-29T01:06:17.289Z,21.72
2017-10-29T01:07:26.259Z,21.84
2017-10-29T01:08:35.301Z,21.71
2017-10-29T01:09:43.956Z,21.75
2017-10-29T01:10:52.593Z,21.92
2017-10-29T01:12:02.973Z,21.82
2017-10-29T01:13:11.636Z,21.91
2017-10-29T01:14:20.942Z,21.86
2017-10-29T01:15:30.680Z,21.79
2017-10-29T01:16:39.343Z,21.91
2017-10-29T01:17:48.655Z,21.79
2017-10-29T01:18:57.645Z,21.82
2017-10-29T01:20:06.636Z,21.77
2017-10-29T01:21:15.603Z,21.74
2017-10-29T01:22:24.903Z,21.91
2017-10-29T01:23:33.876Z,21.86
2017-10-29T01:24:43.193Z,21.88
2017-10-29T01:25:52.163Z,21.92
2017-10-29T01:27:00.824Z,21.82
2017-10-29T01:28:09.818Z,21.86
2017-10-29T01:29:18.781Z,21.86
2017-10-29T01:30:28.414Z,21.9
2017-10-29T01:31:37.737Z,21.92
2017-10-29T01:32:46.723Z,21.9
2017-10-29T01:33:55.706Z,21.9
2017-10-29T01:35:04.364Z,21.92
2017-10-29T01:36:13.690Z,21.84
2017-10-29T01:37:22.673Z,21.82
2017-10-29T01:38:31.657Z,21.86
2017-10-29T01:39:40.964Z,21.83
2017-10-29T01:40:50.265Z,21.83
2017-10-29T01:41:59.884Z,21.9
2017-10-29T01:43:08.859Z,21.9
2017-10-29T01:44:17.852Z,21.74
2017-10-29T01:45:26.854Z,21.83
2017-10-29T01:46:35.825Z,21.84
2017-10-29T01:47:44.480Z,21.82
2017-10-29T01:48:53.129Z,21.84
2017-10-29T01:50:02.104Z,21.84
2017-10-29T01:51:11.398Z,21.74
2017-10-29T01:52:20.373Z,21.83
2017-10-29T01:53:29.409Z,21.77
2017-10-29T01:54:38.379Z,21.83
2017-10-29T01:55:47.346Z,21.86
2017-10-29T01:56:56.644Z,21.86
2017-10-29T01:58:05.629Z,21.75
2017-10-29T01:59:14.612Z,21.82
2017-10-29T02:00:23.594Z,21.8
2017-10-29T02:01:32.569Z,21.83
2017-10-29T02:02:41.548Z,21.72
2017-10-29T02:03:50.858Z,21.82
2017-10-29T02:04:59.512Z,21.74
2017-10-29T02:06:08.824Z,21.88
2017-10-29T02:07:17.475Z,21.82
2017-10-29T02:08:26.452Z,21.74
2017-10-29T02:09:35.791Z,21.8
2017-10-29T02:10:44.782Z,21.91
2017-10-29T02:11:54.082Z,21.79
2017-10-29T02:13:03.059Z,21.82
2017-10-29T02:14:12.389Z,21.82
2017-10-29T02:15:21.035Z,21.74
2017-10-29T02:16:30.356Z,21.74
2017-10-29T02:17:39.396Z,21.82
2017-10-29T02:18:48.708Z,21.83
2017-10-29T02:19:57.363Z,21.77
2017-10-29T02:21:06.692Z,21.75
2017-10-29T02:22:15.671Z,21.74
2017-10-29T02:23:24.316Z,21.74
2017-10-29T02:24:33.403Z,21.88
2017-10-29T02:25:43.046Z,21.8
2017-10-29T02:26:52.729Z,21.82
2017-10-29T02:28:02.021Z,21.86
2017-10-29T02:29:11.341Z,21.74
2017-10-29T02:30:20.787Z,21.74
2017-10-29T02:31:29.763Z,21.91
2017-10-29T02:32:38.406Z,21.84
2017-10-29T02:33:47.440Z,21.74
2017-10-29T02:34:56.412Z,21.8
2017-10-29T02:36:05.058Z,21.84
2017-10-29T02:37:14.038Z,21.86
2017-10-29T02:38:22.711Z,21.82
2017-10-29T02:39:32.030Z,21.83
2017-10-29T02:40:41.736Z,21.88
2017-10-29T02:41:51.034Z,21.82
2017-10-29T02:42:59.698Z,21.84
2017-10-29T02:44:08.355Z,21.8
2017-10-29T02:45:17.692Z,21.77
2017-10-29T02:46:27.311Z,21.9
2017-10-29T02:47:35.965Z,21.75
2017-10-29T02:48:45.321Z,21.83
2017-10-29T02:49:54.648Z,21.8
2017-10-29T02:51:03.641Z,21.86
2017-10-29T02:52:12.303Z,21.79
2017-10-29T02:53:21.292Z,21.75
2017-10-29T02:54:30.974Z,21.84
2017-10-29T02:55:39.944Z,21.84
2017-10-29T02:56:48.939Z,21.9
2017-10-29T02:57:58.898Z,21.82
2017-10-29T02:59:07.898Z,21.88
2017-10-29T03:00:16.888Z,21.74
2017-10-29T03:01:25.544Z,21.83
2017-10-29T03:02:34.208Z,21.84
2017-10-29T03:03:43.192Z,21.77
2017-10-29T03:04:51.858Z,21.88
2017-10-29T03:06:01.171Z,21.79
2017-10-29T03:07:09.817Z,21.71
2017-10-29T03:08:19.465Z,21.92
2017-10-29T03:09:28.745Z,21.83
2017-10-29T03:10:38.053Z,21.9
2017-10-29T03:11:47.356Z,21.84
2017-10-29T03:12:56.656Z,21.9
2017-10-29T03:14:05.632Z,21.84
2017-10-29T03:15:14.599Z,21.83
2017-10-29T03:16:23.242Z,21.75
2017-10-29T03:17:32.561Z,21.83
2017-10-29T03:18:41.221Z,21.82
2017-10-29T03:19:50.218Z,21.75
2017-10-29T03:20:59.518Z,21.8
2017-10-29T03:22:08.820Z,21.9
2017-10-29T03:23:17.476Z,21.86
2017-10-29T03:24:26.449Z,21.88
2017-10-29T03:25:36.106Z,21.91
2017-10-29T03:26:45.775Z,21.79
2017-10-29T03:27:54.749Z,21.79
2017-10-29T03:29:04.388Z,21.9
2017-10-29T03:30:14.357Z,21.88
2017-10-29T03:31:23.656Z,21.79
2017-10-29T03:32:32.646Z,21.8
2017-10-29T03:33:41.946Z,21.79
2017-10-29T03:34:51.579Z,21.86
2017-10-29T03:36:00.881Z,21.77
2017-10-29T03:37:09.865Z,21.77
2017-10-29T03:38:18.831Z,21.82
2017-10-29T03:39:29.121Z,21.9
2017-10-29T03:40:37.790Z,21.9
2017-10-29T03:41:46.781Z,21.74
2017-10-29T03:42:55.748Z,21.75
2017-10-29T03:44:04.739Z,21.86
2017-10-29T03:45:14.130Z,21.82
2017-10-29T03:46:22.787Z,21.84
2017-10-29T03:47:31.767Z,21.77
2017-10-29T03:48:40.467Z,21.72
2017-10-29T03:49:50.438Z,21.8
2017-10-29T03:50:59.419Z,21.84
2017-10-29T03:52:08.712Z,21.82
2017-10-29T03:53:17.700Z,21.9
2017-10-29T03:54:26.344Z,21.9
2017-10-29T03:55:35.314Z,21.83
2017-10-29T03:56:44.392Z,21.84
2017-10-29T03:57:53.381Z,21.77
2017-10-29T03:59:02.702Z,21.84
2017-10-29T04:00:11.687Z,21.8
2017-10-29T04:01:20.673Z,21.75
2017-10-29T04:02:29.976Z,21.84
2017-10-29T04:03:38.961Z,21.82
2017-10-29T04:04:47.937Z,21.74
2017-10-29T04:05:56.917Z,21.74
2017-10-29T04:07:06.541Z,21.75
2017-10-29T04:08:15.575Z,21.83
2017-10-29T04:09:24.567Z,21.75
2017-10-29T04:10:33.541Z,21.8
2017-10-29T04:11:42.521Z,21.77
2017-10-29T04:12:52.469Z,21.9
2017-10-29T04:14:02.083Z,21.72
2017-10-29T04:15:10.736Z,21.82
2017-10-29T04:16:20.035Z,21.74
2017-10-29T04:17:29.024Z,21.88
2017-10-29T04:18:38.019Z,21.83
2017-10-29T04:19:47.432Z,21.83
2017-10-29T04:20:56.727Z,21.79
2017-10-29T04:22:05.689Z,21.9
2017-10-29T04:23:14.327Z,21.74
2017-10-29T04:24:23.313Z,21.82
2017-10-29T04:25:32.405Z,21.83
2017-10-29T04:26:41.706Z,21.83
2017-10-29T04:27:50.702Z,21.75
2017-10-29T04:28:59.690Z,21.86
2017-10-29T04:30:08.660Z,21.84
2017-10-29T04:31:17.320Z,21.8
2017-10-29T04:32:26.288Z,21.79
2017-10-29T04:33:35.602Z,21.84
2017-10-29T04:34:44.582Z,21.75
2017-10-29T04:35:53.564Z,21.74
2017-10-29T04:37:02.659Z,21.84
2017-10-29T04:38:11.295Z,21.86
2017-10-29T04:39:19.965Z,21.77
2017-10-29T04:40:28.956Z,21.75
2017-10-29T04:41:38.278Z,21.77
2017-10-29T04:42:47.242Z,21.86
2017-10-29T04:43:55.903Z,21.8
2017-10-29T04:45:04.545Z,21.84
2017-10-29T04:46:13.528Z,21.83
2017-10-29T04:47:22.836Z,21.68
2017-10-29T04:48:31.572Z,21.8
2017-10-29T04:49:40.944Z,21.84
2017-10-29T04:50:49.605Z,21.84
2017-10-29T04:51:58.596Z,21.74
2017-10-29T04:53:07.231Z,21.83
2017-10-29T04:54:16.202Z,21.8
2017-10-29T04:55:25.878Z,21.79
2017-10-29T04:56:34.847Z,21.82
2017-10-29T04:57:44.480Z,21.79
2017-10-29T04:58:53.477Z,21.75
2017-10-29T05:00:02.246Z,21.77
2017-10-29T05:01:11.540Z,21.82
2017-10-29T05:02:20.852Z,21.83
2017-10-29T05:03:29.839Z,21.8
2017-10-29T05:04:39.153Z,21.72
2017-10-29T05:05:48.525Z,21.82
2017-10-29T05:06:57.496Z,21.72
2017-10-29T05:08:06.130Z,21.77
2017-10-29T05:09:15.447Z,21.8
2017-10-29T05:10:24.427Z,21.77
2017-10-29T05:11:34.064Z,21.72
2017-10-29T05:12:42.716Z,21.74
2017-10-29T05:13:51.686Z,21.8
2017-10-29T05:15:00.324Z,21.74
2017-10-29T05:16:09.295Z,21.79
2017-10-29T05:17:18.619Z,21.74
2017-10-29T05:18:27.912Z,21.71
2017-10-29T05:19:37.219Z,21.83
2017-10-29T05:20:46.530Z,21.8
2017-10-29T05:21:55.527Z,21.74
2017-10-29T05:23:04.496Z,21.75
2017-10-29T05:24:13.477Z,21.69
2017-10-29T05:25:22.448Z,21.77
2017-10-29T05:26:31.500Z,21.67
2017-10-29T05:27:40.481Z,21.71
2017-10-29T05:28:49.788Z,21.75
2017-10-29T05:29:58.831Z,21.75
2017-10-29T05:31:07.483Z,21.74
2017-10-29T05:32:16.872Z,21.74
2017-10-29T05:33:26.488Z,21.64
2017-10-29T05:34:35.783Z,21.74
2017-10-29T05:35:44.745Z,21.75
2017-10-29T05:36:53.396Z,21.71
2017-10-29T05:38:02.045Z,21.71
2017-10-29T05:39:11.690Z,21.72
2017-10-29T05:40:21.335Z,21.74
2017-10-29T05:41:30.328Z,21.72
2017-10-29T05:42:39.629Z,21.75
2017-10-29T05:43:48.935Z,21.69
2017-10-29T05:44:57.571Z,21.69
2017-10-29T05:46:06.535Z,21.68
2017-10-29T05:47:15.883Z,21.68
2017-10-29T05:48:24.870Z,21.68
2017-10-29T05:49:33.513Z,21.69
2017-10-29T05:50:42.506Z,21.65
2017-10-29T05:51:51.595Z,21.67
2017-10-29T05:53:00.259Z,21.67
2017-10-29T05:54:09.218Z,21.64
2017-10-29T05:55:18.544Z,21.65
2017-10-29T05:56:27.519Z,21.67
2017-10-29T05:57:37.253Z,21.65
2017-10-29T05:58:45.906Z,21.67
2017-10-29T05:59:55.325Z,21.67
2017-10-29T06:01:04.960Z,21.62
2017-10-29T06:02:13.937Z,21.74
2017-10-29T06:03:22.902Z,21.65
2017-10-29T06:04:32.198Z,21.71
2017-10-29T06:05:41.504Z,21.65
2017-10-29T06:06:50.511Z,21.64
2017-10-29T06:07:59.489Z,21.69
2017-10-29T06:09:08.455Z,21.68
2017-10-29T06:10:17.422Z,21.67
2017-10-29T06:11:27.054Z,21.64
2017-10-29T06:12:36.361Z,21.65
2017-10-29T06:13:45.024Z,21.69
2017-10-29T06:14:54.321Z,21.71
2017-10-29T06:16:03.623Z,21.64
2017-10-29T06:17:13.262Z,21.68
2017-10-29T06:18:22.572Z,21.65
2017-10-29T06:19:31.234Z,21.67
2017-10-29T06:20:40.321Z,21.67
2017-10-29T06:21:48.968Z,21.72
2017-10-29T06:22:57.631Z,21.61
2017-10-29T06:24:06.937Z,21.69
2017-10-29T06:25:15.901Z,21.71
2017-10-29T06:26:24.984Z,21.71
2017-10-29T06:27:34.603Z,21.65
2017-10-29T06:28:44.295Z,21.67
2017-10-29T06:29:52.930Z,21.65
2017-10-29T06:31:01.897Z,21.71
2017-10-29T06:32:10.867Z,21.68
2017-10-29T06:33:20.188Z,21.67
2017-10-29T06:34:28.834Z,21.74
2017-10-29T06:35:38.161Z,21.72
2017-10-29T06:36:47.448Z,21.71
2017-10-29T06:37:56.422Z,21.69
2017-10-29T06:39:05.100Z,21.71
2017-10-29T06:40:13.910Z,21.65
2017-10-29T06:41:23.537Z,21.69
2017-10-29T06:42:32.672Z,21.74
2017-10-29T06:43:42.713Z,21.68
2017-10-29T06:44:52.008Z,21.64
2017-10-29T06:46:00.692Z,21.68
2017-10-29T06:47:10.829Z,21.69
2017-10-29T06:48:19.809Z,21.68
2017-10-29T06:49:28.924Z,21.67
2017-10-29T06:50:37.603Z,21.72
2017-10-29T06:51:46.634Z,21.74
2017-10-29T06:52:55.529Z,21.74
2017-10-29T06:54:06.409Z,21.72
2017-10-29T06:55:15.073Z,21.72
2017-10-29T06:56:24.797Z,21.75
2017-10-29T06:57:33.846Z,21.69
2017-10-29T06:58:43.149Z,21.74
2017-10-29T06:59:52.777Z,21.72
2017-10-29T07:01:01.872Z,21.72
2017-10-29T07:02:11.186Z,21.71
2017-10-29T07:03:20.497Z,21.77
2017-10-29T07:04:30.154Z,21.69
2017-10-29T07:05:38.814Z,21.77
2017-10-29T07:06:47.509Z,21.77
2017-10-29T07:07:56.173Z,21.79
2017-10-29T07:09:05.485Z,21.77
2017-10-29T07:10:15.161Z,21.79
2017-10-29T07:11:23.811Z,21.71
2017-10-29T07:12:32.786Z,21.77
2017-10-29T07:13:41.804Z,21.79
2017-10-29T07:14:50.671Z,21.79
2017-10-29T07:16:00.077Z,21.77
2017-10-29T07:17:09.209Z,21.79
2017-10-29T07:18:18.471Z,21.77
2017-10-29T07:19:27.941Z,21.72
2017-10-29T07:20:36.718Z,21.77
2017-10-29T07:21:45.990Z,21.84
2017-10-29T07:22:54.646Z,21.79
2017-10-29T07:24:03.743Z,21.83
2017-10-29T07:25:13.379Z,21.8
2017-10-29T07:26:22.039Z,21.74
2017-10-29T07:27:31.352Z,21.9
2017-10-29T07:28:40.350Z,21.74
2017-10-29T07:29:49.330Z,21.9
2017-10-29T07:30:58.325Z,21.9
2017-10-29T07:32:07.280Z,21.9
2017-10-29T07:33:15.949Z,21.86
2017-10-29T07:34:24.630Z,21.84
2017-10-29T07:35:33.291Z,21.83
2017-10-29T07:36:42.265Z,21.86
2017-10-29T07:37:51.257Z,21.79
2017-10-29T07:39:00.917Z,21.8
2017-10-29T07:40:09.873Z,21.83
2017-10-29T07:41:19.180Z,21.9
2017-10-29T07:42:28.796Z,21.79
2017-10-29T07:43:38.475Z,21.91
2017-10-29T07:44:47.441Z,21.92
2017-10-29T07:45:56.082Z,21.91
2017-10-29T07:47:05.068Z,21.91
2017-10-29T07:48:13.708Z,21.88
2017-10-29T07:49:22.694Z,21.79
2017-10-29T07:50:31.667Z,21.9
2017-10-29T07:51:41.297Z,21.98
2017-10-29T07:52:50.299Z,21.92
2017-10-29T07:53:59.281Z,21.8
2017-10-29T07:55:08.908Z,21.86
2017-10-29T07:56:17.883Z,21.79
2017-10-29T07:57:26.522Z,21.91
2017-10-29T07:58:35.844Z,21.9
2017-10-29T07:59:44.693Z,21.82
2017-10-29T08:00:53.980Z,21.96
2017-10-29T08:02:03.308Z,21.86
2017-10-29T08:03:13.125Z,21.9
2017-10-29T08:04:22.564Z,21.88
2017-10-29T08:05:31.535Z,21.92
2017-10-29T08:06:40.888Z,21.91
2017-10-29T08:07:49.521Z,21.94
2017-10-29T08:08:58.580Z,21.92
2017-10-29T08:10:08.146Z,21.84
2017-10-29T08:11:17.446Z,21.86
2017-10-29T08:12:26.751Z,21.84
2017-10-29T08:13:35.738Z,21.86
2017-10-29T08:14:45.057Z,21.91
2017-10-29T08:15:54.006Z,21.92
2017-10-29T08:17:02.664Z,21.83
2017-10-29T08:18:11.656Z,21.98
2017-10-29T08:19:20.682Z,21.88
2017-10-29T08:20:29.675Z,21.88
2017-10-29T08:21:38.970Z,21.75
2017-10-29T08:22:47.601Z,21.83
2017-10-29T08:23:56.582Z,21.88
2017-10-29T08:25:05.588Z,21.88
2017-10-29T08:26:14.551Z,21.82
2017-10-29T08:27:23.567Z,21.92
2017-10-29T08:28:33.029Z,21.9
2017-10-29T08:29:42.018Z,21.84
2017-10-29T08:30:51.018Z,21.88
2017-10-29T08:32:00.415Z,21.92
2017-10-29T08:33:09.065Z,21.92
2017-10-29T08:34:18.377Z,21.9
2017-10-29T08:35:27.419Z,21.86
2017-10-29T08:36:36.178Z,21.86
2017-10-29T08:37:45.164Z,21.9
2017-10-29T08:38:53.825Z,21.91
2017-10-29T08:40:02.805Z,21.83
2017-10-29T08:41:12.170Z,21.9
2017-10-29T08:42:21.494Z,21.86
2017-10-29T08:43:31.206Z,21.92
2017-10-29T08:44:40.416Z,21.9
2017-10-29T08:45:49.468Z,21.91
2017-10-29T08:46:58.789Z,21.84
2017-10-29T08:48:08.446Z,21.86
2017-10-29T08:49:17.824Z,21.96
2017-10-29T08:50:27.186Z,21.94
2017-10-29T08:51:36.322Z,21.94
2017-10-29T08:52:46.018Z,21.86
2017-10-29T08:53:55.669Z,21.94
2017-10-29T08:55:04.339Z,21.94
2017-10-29T08:56:14.123Z,21.98
2017-10-29T08:57:22.786Z,21.94
2017-10-29T08:58:32.096Z,22.12
2017-10-29T08:59:41.401Z,22.09
2017-10-29T09:00:50.762Z,22.12
2017-10-29T09:01:59.775Z,22.24
2017-10-29T09:03:08.447Z,22.2
2017-10-29T09:04:17.135Z,22.15
2017-10-29T09:05:26.447Z,22.22
2017-10-29T09:06:36.180Z,22.25
2017-10-29T09:07:44.854Z,22.3
2017-10-29T09:08:53.870Z,22.36
2017-10-29T09:10:03.583Z,22.36
2017-10-29T09:11:12.248Z,22.33
2017-10-29T09:12:22.243Z,22.35
2017-10-29T09:13:30.918Z,22.36
2017-10-29T09:14:39.564Z,22.36
2017-10-29T09:15:48.261Z,22.45
2017-10-29T09:16:57.653Z,22.43
2017-10-29T09:18:07.111Z,22.51
2017-10-29T09:19:16.278Z,22.61
2017-10-29T09:20:25.356Z,22.6
2017-10-29T09:21:34.579Z,22.61
2017-10-29T09:22:43.784Z,22.65
2017-10-29T09:23:52.812Z,22.58
2017-10-29T09:25:02.473Z,22.7
2017-10-29T09:26:11.853Z,22.7
2017-10-29T09:27:21.175Z,22.61
2017-10-29T09:28:30.501Z,22.65
2017-10-29T09:29:39.163Z,22.61
2017-10-29T09:30:48.465Z,22.67
2017-10-29T09:31:57.779Z,22.6
2017-10-29T09:33:06.801Z,22.6
2017-10-29T09:34:15.816Z,22.57
2017-10-29T09:35:25.543Z,22.31
2017-10-29T09:36:34.886Z,22.18
2017-10-29T09:37:43.628Z,22.06
2017-10-29T09:38:52.624Z,21.91
2017-10-29T09:40:02.061Z,21.75
2017-10-29T09:41:11.867Z,21.61
2017-10-29T09:42:21.908Z,21.44
2017-10-29T09:43:31.638Z,21.37
2017-10-29T09:44:41.036Z,21.29
2017-10-29T09:45:50.439Z,21.16
2017-10-29T09:46:59.447Z,20.95
2017-10-29T09:48:08.211Z,20.95
2017-10-29T09:49:17.215Z,20.79
2017-10-29T09:50:26.537Z,20.73
2017-10-29T09:51:35.558Z,20.51
2017-10-29T09:52:44.554Z,20.41
2017-10-29T09:53:53.209Z,20.31
2017-10-29T09:55:02.725Z,20.21
2017-10-29T09:56:11.997Z,20.2
2017-10-29T09:57:21.451Z,20.06
2017-10-29T09:58:32.431Z,19.96
2017-10-29T09:59:41.497Z,19.88
2017-10-29T10:00:50.540Z,19.87
2017-10-29T10:02:00.053Z,19.81
2017-10-29T10:03:09.044Z,19.73
2017-10-29T10:04:18.040Z,19.73
2017-10-29T10:05:27.380Z,19.73
2017-10-29T10:06:36.687Z,19.63
2017-10-29T10:07:45.340Z,19.66
2017-10-29T10:08:54.337Z,19.71
2017-10-29T10:10:03.003Z,19.59
2017-10-29T10:11:11.997Z,19.58
2017-10-29T10:12:20.695Z,19.54
2017-10-29T10:13:30.147Z,19.47
2017-10-29T10:14:39.153Z,19.44
2017-10-29T10:15:47.809Z,19.48
2017-10-29T10:16:57.151Z,19.46
2017-10-29T10:18:06.178Z,19.44
2017-10-29T10:19:15.166Z,19.55
2017-10-29T10:20:24.476Z,19.59
2017-10-29T10:21:33.512Z,19.58
2017-10-29T10:22:42.186Z,19.65
2017-10-29T10:23:51.167Z,19.76
2017-10-29T10:24:59.845Z,19.81
2017-10-29T10:26:09.174Z,19.91
2017-10-29T10:27:18.470Z,20.01
2017-10-29T10:28:27.797Z,20.11
2017-10-29T10:29:36.812Z,20.23
2017-10-29T10:30:45.822Z,20.2
2017-10-29T10:31:55.156Z,20.41
2017-10-29T10:33:04.502Z,20.38
2017-10-29T10:34:13.525Z,20.54
2017-10-29T10:35:23.620Z,20.57
2017-10-29T10:36:33.316Z,20.57
2017-10-29T10:37:42.477Z,20.61
2017-10-29T10:38:51.464Z,20.66
2017-10-29T10:40:00.444Z,20.69
2017-10-29T10:41:10.162Z,20.72
2017-10-29T10:42:19.243Z,20.79
2017-10-29T10:43:28.665Z,20.88
2017-10-29T10:44:37.696Z,20.85
2017-10-29T10:45:46.423Z,20.95
2017-10-29T10:46:55.132Z,20.99
2017-10-29T10:48:04.143Z,21.04
2017-10-29T10:49:13.164Z,21.04
2017-10-29T10:50:22.139Z,21.07
2017-10-29T10:51:31.776Z,21.16
2017-10-29T10:52:41.151Z,21.16
2017-10-29T10:53:49.820Z,21.16
2017-10-29T10:54:59.489Z,21.28
2017-10-29T10:56:08.469Z,21.22
2017-10-29T10:57:18.116Z,21.34
2017-10-29T10:58:27.426Z,21.38
2017-10-29T10:59:36.409Z,21.37
2017-10-29T11:00:45.462Z,21.37
2017-10-29T11:01:54.436Z,21.38
2017-10-29T11:03:03.454Z,21.47
2017-10-29T11:04:12.468Z,21.42
2017-10-29T11:05:21.437Z,21.43
2017-10-29T11:06:30.431Z,21.42
2017-10-29T11:07:40.078Z,21.42
2017-10-29T11:08:48.744Z,21.37
2017-10-29T11:09:57.774Z,21.43
2017-10-29T11:11:06.456Z,21.52
2017-10-29T11:12:16.320Z,21.4
2017-10-29T11:13:25.358Z,21.47
2017-10-29T11:14:34.396Z,21.49
2017-10-29T11:15:43.370Z,21.49
2017-10-29T11:16:52.363Z,21.49
2017-10-29T11:18:01.812Z,21.52
2017-10-29T11:19:10.559Z,21.44
2017-10-29T11:20:19.342Z,21.53
2017-10-29T11:21:28.095Z,21.56
2017-10-29T11:22:36.766Z,21.56
2017-10-29T11:23:45.412Z,21.52
2017-10-29T11:24:54.084Z,21.58
2017-10-29T11:26:03.073Z,21.58
2017-10-29T11:27:12.326Z,21.56
2017-10-29T11:28:21.192Z,21.58
2017-10-29T11:29:30.303Z,21.58
2017-10-29T11:30:39.621Z,21.54
2017-10-29T11:31:49.054Z,21.59
2017-10-29T11:32:58.092Z,21.62
2017-10-29T11:34:08.259Z,21.68
2017-10-29T11:35:17.723Z,21.67
2017-10-29T11:36:26.757Z,21.61
2017-10-29T11:37:35.783Z,21.61
2017-10-29T11:38:45.888Z,21.61
2017-10-29T11:39:54.696Z,21.61
2017-10-29T11:41:03.840Z,21.62
2017-10-29T11:42:13.478Z,21.69
2017-10-29T11:43:22.545Z,21.64
2017-10-29T11:44:31.585Z,21.65
2017-10-29T11:45:40.922Z,21.65
2017-10-29T11:46:50.852Z,21.71
2017-10-29T11:47:59.918Z,21.64
2017-10-29T11:49:09.598Z,21.72
2017-10-29T11:50:18.899Z,21.72
2017-10-29T11:51:27.558Z,21.71
2017-10-29T11:52:37.238Z,21.79
2017-10-29T11:53:46.542Z,21.74
2017-10-29T11:54:55.410Z,21.74
2017-10-29T11:56:04.431Z,21.74
2017-10-29T11:57:13.593Z,21.71
2017-10-29T11:58:22.643Z,21.74
2017-10-29T11:59:31.944Z,21.77
2017-10-29T12:00:41.026Z,21.8
2017-10-29T12:01:49.801Z,21.75
2017-10-29T12:02:59.099Z,21.71
2017-10-29T12:04:08.087Z,21.74
2017-10-29T12:05:17.411Z,21.77
2017-10-29T12:06:26.389Z,21.72
2017-10-29T12:07:35.376Z,21.75
2017-10-29T12:08:44.356Z,21.74
2017-10-29T12:09:53.349Z,21.74
2017-10-29T12:11:02.741Z,21.68
2017-10-29T12:12:12.376Z,21.75
2017-10-29T12:13:21.942Z,21.75
2017-10-29T12:14:31.356Z,21.71
2017-10-29T12:15:40.452Z,21.75
2017-10-29T12:16:49.737Z,21.74
2017-10-29T12:17:59.336Z,21.74
2017-10-29T12:19:08.129Z,21.77
2017-10-29T12:20:16.883Z,21.77
2017-10-29T12:21:25.871Z,21.71
2017-10-29T12:22:34.858Z,21.82
2017-10-29T12:23:44.261Z,21.79
2017-10-29T12:24:53.262Z,21.88
2017-10-29T12:26:02.924Z,21.72
2017-10-29T12:27:11.594Z,21.8
2017-10-29T12:28:20.934Z,21.9
2017-10-29T12:29:29.931Z,21.88
2017-10-29T12:30:38.637Z,21.92
2017-10-29T12:31:48.309Z,21.99
2017-10-29T12:32:56.942Z,21.84
2017-10-29T12:34:05.586Z,21.91
2017-10-29T12:35:14.893Z,21.9
2017-10-29T12:36:23.562Z,21.92
2017-10-29T12:37:32.886Z,21.9
2017-10-29T12:38:41.930Z,21.92
2017-10-29T12:39:51.259Z,21.88
2017-10-29T12:40:59.916Z,21.92
2017-10-29T12:42:09.258Z,21.88
2017-10-29T12:43:18.355Z,21.94
2017-10-29T12:44:27.340Z,21.91
2017-10-29T12:45:36.320Z,21.94
2017-10-29T12:46:46.288Z,21.9
2017-10-29T12:47:55.308Z,21.86
2017-10-29T12:49:04.627Z,22
2017-10-29T12:50:13.597Z,21.86
2017-10-29T12:51:22.892Z,21.94
2017-10-29T12:52:32.016Z,21.92
2017-10-29T12:53:41.332Z,21.86
2017-10-29T12:54:49.988Z,21.8
2017-10-29T12:55:58.629Z,21.96
2017-10-29T12:57:07.615Z,21.9
2017-10-29T12:58:16.284Z,21.88
2017-10-29T12:59:25.593Z,21.88
2017-10-29T13:00:34.246Z,21.84
2017-10-29T13:01:42.905Z,21.99
2017-10-29T13:02:51.870Z,21.98
2017-10-29T13:04:00.965Z,21.92
2017-10-29T13:05:10.289Z,21.96
2017-10-29T13:06:19.260Z,21.84
2017-10-29T13:07:28.260Z,21.9
2017-10-29T13:08:37.985Z,21.88
2017-10-29T13:09:47.324Z,21.84
2017-10-29T13:10:56.297Z,21.88
2017-10-29T13:12:05.628Z,21.94
2017-10-29T13:13:14.617Z,21.9
2017-10-29T13:14:23.282Z,21.86
2017-10-29T13:15:32.019Z,21.92
2017-10-29T13:16:41.344Z,21.9
2017-10-29T13:17:50.666Z,21.86
2017-10-29T13:18:59.334Z,21.82
2017-10-29T13:20:08.660Z,21.82
2017-10-29T13:21:17.374Z,21.92
2017-10-29T13:22:27.377Z,21.92
2017-10-29T13:23:36.693Z,21.92
2017-10-29T13:24:46.027Z,21.96
2017-10-29T13:25:54.998Z,21.86
2017-10-29T13:27:04.297Z,21.91
2017-10-29T13:28:13.295Z,21.86
2017-10-29T13:29:22.274Z,21.91
2017-10-29T13:30:31.583Z,21.91
2017-10-29T13:31:40.929Z,21.94
2017-10-29T13:32:49.570Z,21.92
2017-10-29T13:33:58.612Z,21.86
2017-10-29T13:35:08.230Z,21.92
2017-10-29T13:36:17.558Z,21.92
2017-10-29T13:37:26.700Z,21.9
2017-10-29T13:38:36.804Z,21.92
2017-10-29T13:39:46.061Z,21.96
2017-10-29T13:40:54.845Z,21.88
2017-10-29T13:42:04.191Z,21.92
2017-10-29T13:43:13.829Z,21.9
2017-10-29T13:44:22.548Z,21.88
2017-10-29T13:45:32.517Z,21.91
2017-10-29T13:46:41.893Z,21.9
2017-10-29T13:47:50.551Z,21.91
2017-10-29T13:48:59.530Z,21.91
2017-10-29T13:50:08.520Z,21.92
2017-10-29T13:51:17.828Z,21.88
2017-10-29T13:52:26.513Z,21.9
2017-10-29T13:53:35.582Z,21.94
2017-10-29T13:54:44.237Z,21.88
2017-10-29T13:55:52.898Z,21.96
2017-10-29T13:57:01.953Z,21.9
2017-10-29T13:58:11.767Z,21.9
2017-10-29T13:59:21.400Z,21.92
2017-10-29T14:00:30.405Z,21.84
2017-10-29T14:01:39.393Z,21.9
2017-10-29T14:02:48.393Z,21.94
2017-10-29T14:03:57.403Z,21.86
2017-10-29T14:05:06.389Z,21.92
2017-10-29T14:06:15.363Z,21.94
2017-10-29T14:07:25.012Z,21.91
2017-10-29T14:08:34.343Z,21.98
2017-10-29T14:09:43.671Z,21.9
2017-10-29T14:10:53.035Z,21.91
2017-10-29T14:12:02.021Z,21.98
2017-10-29T14:13:11.437Z,21.88
2017-10-29T14:14:20.416Z,21.92
2017-10-29T14:15:29.732Z,21.92
2017-10-29T14:16:38.729Z,21.96
2017-10-29T14:17:47.715Z,21.94
2017-10-29T14:18:56.811Z,21.99
2017-10-29T14:20:05.777Z,22
2017-10-29T14:21:15.403Z,21.86
2017-10-29T14:22:24.380Z,21.91
2017-10-29T14:23:33.342Z,21.91
2017-10-29T14:24:42.324Z,21.98
2017-10-29T14:25:51.319Z,21.92
2017-10-29T14:27:00.290Z,21.92
2017-10-29T14:28:09.265Z,21.91
2017-10-29T14:29:18.562Z,21.86
2017-10-29T14:30:28.109Z,21.88
2017-10-29T14:31:37.643Z,21.94
2017-10-29T14:32:46.836Z,21.88
2017-10-29T14:33:56.153Z,21.94
2017-10-29T14:35:05.415Z,21.92
2017-10-29T14:36:14.489Z,21.9
2017-10-29T14:37:23.318Z,21.92
2017-10-29T14:38:32.235Z,21.92
2017-10-29T14:39:41.089Z,21.79
2017-10-29T14:40:50.359Z,21.86
2017-10-29T14:41:59.991Z,21.8
2017-10-29T14:43:08.803Z,21.82
2017-10-29T14:44:17.842Z,21.9
2017-10-29T14:45:27.195Z,21.82
2017-10-29T14:46:35.855Z,21.86
2017-10-29T14:47:45.203Z,21.74
2017-10-29T14:48:54.180Z,21.9
2017-10-29T14:50:03.498Z,21.86
2017-10-29T14:51:12.510Z,21.75
2017-10-29T14:52:21.483Z,21.91
2017-10-29T14:53:30.618Z,21.88